sensor_id;sensor_type;location;lat;lon;timestamp;pressure;altitude;pressure_sealevel;temperature;humidity
5988;BME280;3021;51.000;6.980;2023-03-26T00:01:23;67407.31;;;9.94;100.00
5988;BME280;3021;51.000;6.980;2023-03-26T00:03:50;67404.03;;;9.94;100.00
5988;BME280;3021;51.000;6.980;2023-03-26T00:06:32;67405.75;;;9.95;100.00
5988;BME280;3021;51.000;6.980;2023-03-26T00:09:00;67403.88;;;9.91;100.00
5988;BME280;3021;51.000;6.980;2023-03-26T00:11:27;67402.13;;;9.90;100.00
5988;BME280;3021;51.000;6.980;2023-03-26T00:13:54;67400.97;;;9.89;100.00
5988;BME280;3021;51.000;6.980;2023-03-26T00:16:23;67406.91;;;9.96;100.00
5988;BME280;3021;51.000;6.980;2023-03-26T00:18:48;67399.25;;;9.87;100.00
5988;BME280;3021;51.000;6.980;2023-03-26T00:21:18;67379.03;;;9.69;100.00
5988;BME280;3021;51.000;6.980;2023-03-26T00:23:45;67371.69;;;9.65;100.00
5988;BME280;3021;51.000;6.980;2023-03-26T00:26:11;67377.44;;;9.70;100.00
5988;BME280;3021;51.000;6.980;2023-03-26T00:28:41;67386.69;;;9.78;100.00
5988;BME280;3021;51.000;6.980;2023-03-26T00:31:09;67391.88;;;9.83;100.00
5988;BME280;3021;51.000;6.980;2023-03-26T00:33:35;67399.41;;;9.90;100.00
5988;BME280;3021;51.000;6.980;2023-03-26T00:36:04;67405.75;;;9.95;100.00
5988;BME280;3021;51.000;6.980;2023-03-26T00:38:30;67407.91;;;9.95;100.00
5988;BME280;3021;51.000;6.980;2023-03-26T00:40:59;67407.47;;;9.97;100.00
5988;BME280;3021;51.000;6.980;2023-03-26T00:43:31;67418.31;;;10.04;100.00
5988;BME280;3021;51.000;6.980;2023-03-26T00:45:57;67410.94;;;10.00;100.00
5988;BME280;3021;51.000;6.980;2023-03-26T00:48:23;67421.75;;;10.07;100.00
5988;BME280;3021;51.000;6.980;2023-03-26T00:50:49;67430.59;;;10.17;100.00
5988;BME280;3021;51.000;6.980;2023-03-26T00:53:16;67437.94;;;10.21;100.00
5988;BME280;3021;51.000;6.980;2023-03-26T00:55:43;67432.91;;;10.19;100.00
5988;BME280;3021;51.000;6.980;2023-03-26T00:58:09;67442.56;;;10.26;100.00
5988;BME280;3021;51.000;6.980;2023-03-26T01:00:46;67432.75;;;10.17;100.00
5988;BME280;3021;51.000;6.980;2023-03-26T01:03:15;67434.63;;;10.21;100.00
5988;BME280;3021;51.000;6.980;2023-03-26T01:08:13;67444.28;;;10.27;100.00
5988;BME280;3021;51.000;6.980;2023-03-26T01:10:40;67436.81;;;10.20;100.00
5988;BME280;3021;51.000;6.980;2023-03-26T01:13:07;67436.34;;;10.23;100.00
5988;BME280;3021;51.000;6.980;2023-03-26T01:15:33;67437.53;;;10.24;100.00
5988;BME280;3021;51.000;6.980;2023-03-26T01:18:03;67439.81;;;10.26;100.00
5988;BME280;3021;51.000;6.980;2023-03-26T01:20:33;67439.81;;;10.26;100.00
5988;BME280;3021;51.000;6.980;2023-03-26T01:23:05;67445.31;;;10.26;100.00
5988;BME280;3021;51.000;6.980;2023-03-26T01:25:43;67431.59;;;10.16;100.00
5988;BME280;3021;51.000;6.980;2023-03-26T01:28:14;67418.31;;;10.04;100.00
5988;BME280;3021;51.000;6.980;2023-03-26T01:36:09;67355.53;;;9.50;100.00
5988;BME280;3021;51.000;6.980;2023-03-26T01:39:03;67334.59;;;9.29;100.00
5988;BME280;3021;51.000;6.980;2023-03-26T01:41:43;67320.16;;;9.16;100.00
5988;BME280;3021;51.000;6.980;2023-03-26T01:46:53;67294.75;;;8.94;100.00
5988;BME280;3021;51.000;6.980;2023-03-26T01:49:18;67288.25;;;8.86;100.00
5988;BME280;3021;51.000;6.980;2023-03-26T01:51:44;67269.97;;;8.72;100.00
5988;BME280;3021;51.000;6.980;2023-03-26T01:54:17;67260.13;;;8.63;100.00
5988;BME280;3021;51.000;6.980;2023-03-26T01:59:28;67248.44;;;8.50;100.00
5988;BME280;3021;51.000;6.980;2023-03-26T02:07:16;67222.06;;;8.29;100.00
5988;BME280;3021;51.000;6.980;2023-03-26T02:09:50;67222.06;;;8.29;100.00
5988;BME280;3021;51.000;6.980;2023-03-26T02:12:18;67219.75;;;8.27;100.00
5988;BME280;3021;51.000;6.980;2023-03-26T02:14:45;67221.91;;;8.26;100.00
5988;BME280;3021;51.000;6.980;2023-03-26T02:17:11;67221.91;;;8.26;100.00
5988;BME280;3021;51.000;6.980;2023-03-26T02:19:37;67220.91;;;8.28;100.00
5988;BME280;3021;51.000;6.980;2023-03-26T02:22:10;67222.63;;;8.29;100.00
5988;BME280;3021;51.000;6.980;2023-03-26T02:24:40;67222.06;;;8.29;100.00
5988;BME280;3021;51.000;6.980;2023-03-26T02:27:06;67216.84;;;8.24;100.00
5988;BME280;3021;51.000;6.980;2023-03-26T02:29:37;67220.31;;;8.27;100.00
5988;BME280;3021;51.000;6.980;2023-03-26T02:32:05;67232.44;;;8.38;100.00
5988;BME280;3021;51.000;6.980;2023-03-26T02:34:30;67233.59;;;8.39;100.00
5988;BME280;3021;51.000;6.980;2023-03-26T02:36:55;67230.69;;;8.37;100.00
5988;BME280;3021;51.000;6.980;2023-03-26T02:39:21;67239.53;;;8.47;100.00
5988;BME280;3021;51.000;6.980;2023-03-26T02:41:47;67248.03;;;8.52;100.00
5988;BME280;3021;51.000;6.980;2023-03-26T02:44:12;67246.31;;;8.51;100.00
5988;BME280;3021;51.000;6.980;2023-03-26T02:46:37;67245.72;;;8.50;100.00
5988;BME280;3021;51.000;6.980;2023-03-26T02:49:03;67244.28;;;8.54;100.00
5988;BME280;3021;51.000;6.980;2023-03-26T02:51:28;67253.06;;;8.54;100.00
5988;BME280;3021;51.000;6.980;2023-03-26T02:53:53;67256.09;;;8.59;100.00
5988;BME280;3021;51.000;6.980;2023-03-26T02:56:19;67256.69;;;8.60;100.00
5988;BME280;3021;51.000;6.980;2023-03-26T02:58:44;67259.16;;;8.64;100.00
5988;BME280;3021;51.000;6.980;2023-03-26T03:01:11;67267.06;;;8.69;100.00
5988;BME280;3021;51.000;6.980;2023-03-26T03:03:37;67269.53;;;8.74;100.00
5988;BME280;3021;51.000;6.980;2023-03-26T03:06:02;67276.44;;;8.80;100.00
5988;BME280;3021;51.000;6.980;2023-03-26T03:08:28;67287.25;;;8.87;100.00
5988;BME280;3021;51.000;6.980;2023-03-26T03:11:14;67300.53;;;8.99;100.00
5988;BME280;3021;51.000;6.980;2023-03-26T03:13:41;67310.34;;;9.08;100.00
5988;BME280;3021;51.000;6.980;2023-03-26T03:16:07;67313.25;;;9.10;100.00
5988;BME280;3021;51.000;6.980;2023-03-26T03:18:32;67325.34;;;9.21;100.00
5988;BME280;3021;51.000;6.980;2023-03-26T03:20:57;67323.63;;;9.20;100.00
5988;BME280;3021;51.000;6.980;2023-03-26T03:23:23;67326.78;;;9.27;100.00
5988;BME280;3021;51.000;6.980;2023-03-26T03:25:48;67335.31;;;9.32;100.00
5988;BME280;3021;51.000;6.980;2023-03-26T03:28:16;67330.13;;;9.28;100.00
5988;BME280;3021;51.000;6.980;2023-03-26T03:30:43;67341.50;;;9.36;100.00
5988;BME280;3021;51.000;6.980;2023-03-26T03:33:09;67341.66;;;9.38;100.00
5988;BME280;3021;51.000;6.980;2023-03-26T03:35:34;67345.13;;;9.41;100.00
5988;BME280;3021;51.000;6.980;2023-03-26T03:38:00;67345.56;;;9.39;100.00
5988;BME280;3021;51.000;6.980;2023-03-26T03:40:25;67353.03;;;9.46;100.00
5988;BME280;3021;51.000;6.980;2023-03-26T03:42:51;67353.63;;;9.46;100.00
5988;BME280;3021;51.000;6.980;2023-03-26T03:45:16;67356.38;;;9.46;100.00
5988;BME280;3021;51.000;6.980;2023-03-26T03:47:42;67352.47;;;9.45;100.00
5988;BME280;3021;51.000;6.980;2023-03-26T03:50:08;67366.34;;;9.58;100.00
5988;BME280;3021;51.000;6.980;2023-03-26T03:52:34;67360.00;;;9.52;100.00
5988;BME280;3021;51.000;6.980;2023-03-26T03:54:59;67371.53;;;9.62;100.00
5988;BME280;3021;51.000;6.980;2023-03-26T03:57:25;67364.59;;;9.56;100.00
5988;BME280;3021;51.000;6.980;2023-03-26T03:59:51;67347.13;;;9.38;100.00
5988;BME280;3021;51.000;6.980;2023-03-26T04:02:17;67312.06;;;9.09;100.00
5988;BME280;3021;51.000;6.980;2023-03-26T04:04:52;67299.94;;;8.98;100.00
5988;BME280;3021;51.000;6.980;2023-03-26T04:07:18;67276.88;;;8.78;100.00
5988;BME280;3021;51.000;6.980;2023-03-26T04:09:44;67277.16;;;8.73;100.00
5988;BME280;3021;51.000;6.980;2023-03-26T04:12:09;67265.91;;;8.68;100.00
5988;BME280;3021;51.000;6.980;2023-03-26T04:14:35;67263.03;;;8.65;100.00
5988;BME280;3021;51.000;6.980;2023-03-26T04:17:00;67251.66;;;8.58;100.00
5988;BME280;3021;51.000;6.980;2023-03-26T04:19:26;67243.97;;;8.48;100.00
5988;BME280;3021;51.000;6.980;2023-03-26T04:21:52;67243.41;;;8.48;100.00
5988;BME280;3021;51.000;6.980;2023-03-26T04:24:18;67239.38;;;8.44;100.00
5988;BME280;3021;51.000;6.980;2023-03-26T04:26:47;67233.59;;;8.39;100.00
5988;BME280;3021;51.000;6.980;2023-03-26T04:29:14;67226.09;;;8.33;100.00
5988;BME280;3021;51.000;6.980;2023-03-26T04:31:42;67230.13;;;8.36;100.00
5988;BME280;3021;51.000;6.980;2023-03-26T04:34:12;67228.25;;;8.32;100.00
5988;BME280;3021;51.000;6.980;2023-03-26T04:36:39;67226.69;;;8.33;100.00
5988;BME280;3021;51.000;6.980;2023-03-26T04:39:09;67232.28;;;8.36;100.00
5988;BME280;3021;51.000;6.980;2023-03-26T04:41:35;67226.09;;;8.33;100.00
5988;BME280;3021;51.000;6.980;2023-03-26T04:44:01;67224.34;;;8.31;100.00
5988;BME280;3021;51.000;6.980;2023-03-26T04:46:27;67221.47;;;8.28;100.00
5988;BME280;3021;51.000;6.980;2023-03-26T04:48:53;67218.59;;;8.26;100.00
5988;BME280;3021;51.000;6.980;2023-03-26T04:51:22;67225.50;;;8.32;100.00
5988;BME280;3021;51.000;6.980;2023-03-26T04:53:55;67241.13;;;8.46;100.00
5988;BME280;3021;51.000;6.980;2023-03-26T04:59:16;67237.47;;;8.40;100.00
5988;BME280;3021;51.000;6.980;2023-03-26T05:01:42;67250.91;;;8.55;100.00
5988;BME280;3021;51.000;6.980;2023-03-26T05:04:11;67268.22;;;8.70;100.00
5988;BME280;3021;51.000;6.980;2023-03-26T05:06:38;67268.38;;;8.73;100.00
5988;BME280;3021;51.000;6.980;2023-03-26T05:09:03;67287.41;;;8.90;100.00
5988;BME280;3021;51.000;6.980;2023-03-26T05:11:29;67299.38;;;8.98;100.00
5988;BME280;3021;51.000;6.980;2023-03-26T05:13:54;67297.66;;;8.96;100.00
5988;BME280;3021;51.000;6.980;2023-03-26T05:16:21;67295.31;;;8.94;100.00
5988;BME280;3021;51.000;6.980;2023-03-26T05:18:48;67284.94;;;8.85;100.00
5988;BME280;3021;51.000;6.980;2023-03-26T05:21:13;67283.63;;;8.81;100.00
5988;BME280;3021;51.000;6.980;2023-03-26T05:23:38;67292.47;;;8.92;100.00
5988;BME280;3021;51.000;6.980;2023-03-26T05:26:04;67301.69;;;9.00;100.00
5988;BME280;3021;51.000;6.980;2023-03-26T05:28:31;67309.63;;;9.05;100.00
5988;BME280;3021;51.000;6.980;2023-03-26T05:30:57;67314.97;;;9.12;100.00
5988;BME280;3021;51.000;6.980;2023-03-26T05:33:22;67323.63;;;9.20;100.00
5988;BME280;3021;51.000;6.980;2023-03-26T05:35:58;67322.03;;;9.21;100.00
5988;BME280;3021;51.000;6.980;2023-03-26T05:38:25;67324.78;;;9.21;100.00
5988;BME280;3021;51.000;6.980;2023-03-26T05:40:56;67326.06;;;9.24;100.00
5988;BME280;3021;51.000;6.980;2023-03-26T05:43:22;67327.78;;;9.26;100.00
5988;BME280;3021;51.000;6.980;2023-03-26T05:45:47;67332.84;;;9.28;100.00
5988;BME280;3021;51.000;6.980;2023-03-26T05:48:13;67326.91;;;9.20;100.00
5988;BME280;3021;51.000;6.980;2023-03-26T05:50:38;67309.75;;;9.07;100.00
5988;BME280;3021;51.000;6.980;2023-03-26T05:53:03;67284.94;;;8.85;100.00
5988;BME280;3021;51.000;6.980;2023-03-26T05:55:29;67265.19;;;8.65;100.00
5988;BME280;3021;51.000;6.980;2023-03-26T05:57:57;67263.88;;;8.61;100.00
5988;BME280;3021;51.000;6.980;2023-03-26T06:00:22;67245.72;;;8.50;100.00
5988;BME280;3021;51.000;6.980;2023-03-26T06:02:48;67236.03;;;8.44;100.00
5988;BME280;3021;51.000;6.980;2023-03-26T06:05:14;67230.13;;;8.36;100.00
5988;BME280;3021;51.000;6.980;2023-03-26T06:07:40;67219.16;;;8.26;100.00
5988;BME280;3021;51.000;6.980;2023-03-26T06:10:05;67210.50;;;8.19;100.00
5988;BME280;3021;51.000;6.980;2023-03-26T06:12:31;67211.66;;;8.20;100.00
5988;BME280;3021;51.000;6.980;2023-03-26T06:14:56;67208.78;;;8.17;100.00
5988;BME280;3021;51.000;6.980;2023-03-26T06:17:21;67209.94;;;8.18;100.00
5988;BME280;3021;51.000;6.980;2023-03-26T06:19:47;67207.63;;;8.16;100.00
5988;BME280;3021;51.000;6.980;2023-03-26T06:22:12;67209.94;;;8.18;100.00
5988;BME280;3021;51.000;6.980;2023-03-26T06:24:37;67212.66;;;8.18;100.00
5988;BME280;3021;51.000;6.980;2023-03-26T06:27:03;67208.38;;;8.19;100.00
5988;BME280;3021;51.000;6.980;2023-03-26T06:29:28;67208.22;;;8.17;100.00
5988;BME280;3021;51.000;6.980;2023-03-26T06:31:53;67203.44;;;8.10;100.00
5988;BME280;3021;51.000;6.980;2023-03-26T06:34:19;67207.06;;;8.16;100.00
5988;BME280;3021;51.000;6.980;2023-03-26T06:36:45;67208.66;;;8.15;100.00
5988;BME280;3021;51.000;6.980;2023-03-26T06:39:12;67210.94;;;8.17;100.00
5988;BME280;3021;51.000;6.980;2023-03-26T06:41:38;67198.97;;;8.08;100.00
5988;BME280;3021;51.000;6.980;2023-03-26T06:44:03;67203.03;;;8.12;100.00
5988;BME280;3021;51.000;6.980;2023-03-26T06:46:28;67198.97;;;8.08;100.00
5988;BME280;3021;51.000;6.980;2023-03-26T06:48:54;67202.44;;;8.11;100.00
5988;BME280;3021;51.000;6.980;2023-03-26T06:51:19;67208.22;;;8.17;100.00
5988;BME280;3021;51.000;6.980;2023-03-26T06:53:45;67206.47;;;8.15;100.00
5988;BME280;3021;51.000;6.980;2023-03-26T06:56:10;67211.66;;;8.20;100.00
5988;BME280;3021;51.000;6.980;2023-03-26T06:58:35;67208.66;;;8.15;100.00
5988;BME280;3021;51.000;6.980;2023-03-26T07:01:01;67217.44;;;8.25;100.00
5988;BME280;3021;51.000;6.980;2023-03-26T07:03:26;67216.28;;;8.24;100.00
5988;BME280;3021;51.000;6.980;2023-03-26T07:05:52;67216.13;;;8.21;100.00
5988;BME280;3021;51.000;6.980;2023-03-26T07:08:17;67215.72;;;8.23;100.00
5988;BME280;3021;51.000;6.980;2023-03-26T07:10:42;67220.91;;;8.28;100.00
5988;BME280;3021;51.000;6.980;2023-03-26T07:13:08;67214.72;;;8.25;100.00
5988;BME280;3021;51.000;6.980;2023-03-26T07:15:33;67225.50;;;8.32;100.00
5988;BME280;3021;51.000;6.980;2023-03-26T07:17:58;67215.88;;;8.26;100.00
5988;BME280;3021;51.000;6.980;2023-03-26T07:20:24;67202.03;;;8.13;100.00
5988;BME280;3021;51.000;6.980;2023-03-26T07:22:50;67196.69;;;8.06;100.00
5988;BME280;3021;51.000;6.980;2023-03-26T07:25:16;67188.59;;;7.99;100.00
5988;BME280;3021;51.000;6.980;2023-03-26T07:28:30;67201.28;;;8.10;100.00
5988;BME280;3021;51.000;6.980;2023-03-26T07:34:03;67208.22;;;8.17;100.00
5988;BME280;3021;51.000;6.980;2023-03-26T07:36:42;67215.13;;;8.23;100.00
5988;BME280;3021;51.000;6.980;2023-03-26T07:39:35;67208.38;;;8.19;100.00
5988;BME280;3021;51.000;6.980;2023-03-26T07:47:10;67204.75;;;8.13;100.00
5988;BME280;3021;51.000;6.980;2023-03-26T07:49:42;67204.16;;;8.13;100.00
5988;BME280;3021;51.000;6.980;2023-03-26T07:52:09;67213.97;;;8.22;100.00
5988;BME280;3021;51.000;6.980;2023-03-26T07:54:35;67215.72;;;8.23;100.00
5988;BME280;3021;51.000;6.980;2023-03-26T07:57:04;67221.34;;;8.26;100.00
5988;BME280;3021;51.000;6.980;2023-03-26T07:59:36;67218.00;;;8.25;100.00
5988;BME280;3021;51.000;6.980;2023-03-26T08:12:59;67223.19;;;8.30;100.00
5988;BME280;3021;51.000;6.980;2023-03-26T08:15:31;67217.28;;;8.22;100.00
5988;BME280;3021;51.000;6.980;2023-03-26T08:18:19;67218.59;;;8.26;100.00
5988;BME280;3021;51.000;6.980;2023-03-26T08:20:56;67224.34;;;8.31;100.00
5988;BME280;3021;51.000;6.980;2023-03-26T08:23:41;67215.13;;;8.23;100.00
5988;BME280;3021;51.000;6.980;2023-03-26T08:29:00;67217.84;;;8.23;100.00
5988;BME280;3021;51.000;6.980;2023-03-26T08:31:42;67216.44;;;8.26;100.00
5988;BME280;3021;51.000;6.980;2023-03-26T08:34:12;67217.00;;;8.27;100.00
5988;BME280;3021;51.000;6.980;2023-03-26T08:36:38;67213.56;;;8.24;100.00
5988;BME280;3021;51.000;6.980;2023-03-26T08:39:04;67219.00;;;8.24;100.00
5988;BME280;3021;51.000;6.980;2023-03-26T08:56:19;67233.75;;;8.42;100.00
5988;BME280;3021;51.000;6.980;2023-03-26T09:13:00;67215.13;;;8.23;100.00
5988;BME280;3021;51.000;6.980;2023-03-26T09:29:19;67187.88;;;7.96;100.00
5988;BME280;3021;51.000;6.980;2023-03-26T09:40:18;67183.44;;;7.94;100.00
5988;BME280;3021;51.000;6.980;2023-03-26T09:54:03;67158.63;;;7.72;100.00
5988;BME280;3021;51.000;6.980;2023-03-26T10:05:42;67209.94;;;8.18;100.00
5988;BME280;3021;51.000;6.980;2023-03-26T10:10:29;67240.25;;;8.50;100.00
5988;BME280;3021;51.000;6.980;2023-03-26T10:21:29;67255.09;;;8.61;100.00
5988;BME280;3021;51.000;6.980;2023-03-26T10:32:21;67234.75;;;8.40;100.00
5988;BME280;3021;51.000;6.980;2023-03-26T10:35:14;67239.38;;;8.44;100.00
5988;BME280;3021;51.000;6.980;2023-03-26T10:57:23;67307.03;;;9.07;100.00
5988;BME280;3021;51.000;6.980;2023-03-26T11:08:51;67390.75;;;9.82;100.00
5988;BME280;3021;51.000;6.980;2023-03-26T11:11:23;67409.81;;;9.99;100.00
5988;BME280;3021;51.000;6.980;2023-03-26T11:24:48;67519.03;;;10.96;100.00
5988;BME280;3021;51.000;6.980;2023-03-26T11:32:55;67509.63;;;10.85;100.00
5988;BME280;3021;51.000;6.980;2023-03-26T11:35:27;67498.06;;;10.75;100.00
5988;BME280;3021;51.000;6.980;2023-03-26T11:38:00;67474.97;;;10.54;100.00
5988;BME280;3021;51.000;6.980;2023-03-26T11:40:34;67484.78;;;10.63;100.00
5988;BME280;3021;51.000;6.980;2023-03-26T11:43:04;67476.69;;;10.56;100.00
5988;BME280;3021;51.000;6.980;2023-03-26T11:45:34;67458.91;;;10.43;100.00
5988;BME280;3021;51.000;6.980;2023-03-26T11:48:17;67421.75;;;10.07;100.00
5988;BME280;3021;51.000;6.980;2023-03-26T11:50:50;67422.50;;;10.10;100.00
5988;BME280;3021;51.000;6.980;2023-03-26T11:53:21;67416.00;;;10.02;100.00
5988;BME280;3021;51.000;6.980;2023-03-26T11:58:28;67443.88;;;10.29;100.00
5988;BME280;3021;51.000;6.980;2023-03-26T12:00:56;67462.25;;;10.43;100.00
5988;BME280;3021;51.000;6.980;2023-03-26T12:03:21;67462.25;;;10.43;100.00
5988;BME280;3021;51.000;6.980;2023-03-26T12:05:51;67464.53;;;10.45;100.00
5988;BME280;3021;51.000;6.980;2023-03-26T12:08:29;67483.78;;;10.65;100.00
5988;BME280;3021;51.000;6.980;2023-03-26T12:11:06;67485.50;;;10.66;100.00
5988;BME280;3021;51.000;6.980;2023-03-26T12:13:40;67511.50;;;10.89;100.00
5988;BME280;3021;51.000;6.980;2023-03-26T12:16:14;67527.69;;;11.04;100.00
5988;BME280;3021;51.000;6.980;2023-03-26T12:18:41;67545.03;;;11.19;100.00
5988;BME280;3021;51.000;6.980;2023-03-26T12:21:16;67585.50;;;11.55;100.00
5988;BME280;3021;51.000;6.980;2023-03-26T12:23:43;67602.72;;;11.68;100.00
5988;BME280;3021;51.000;6.980;2023-03-26T12:26:20;67583.91;;;11.56;100.00
5988;BME280;3021;51.000;6.980;2023-03-26T12:28:54;67583.19;;;11.53;100.00
5988;BME280;3021;51.000;6.980;2023-03-26T12:31:20;67553.44;;;11.32;100.00
5988;BME280;3021;51.000;6.980;2023-03-26T12:34:12;67580.88;;;11.51;100.00
5988;BME280;3021;51.000;6.980;2023-03-26T12:36:39;67602.28;;;11.70;100.00
5988;BME280;3021;51.000;6.980;2023-03-26T12:39:26;67618.59;;;11.87;100.00
5988;BME280;3021;51.000;6.980;2023-03-26T12:42:00;67653.06;;;12.13;100.00
5988;BME280;3021;51.000;6.980;2023-03-26T12:44:30;67630.63;;;11.96;100.00
5988;BME280;3021;51.000;6.980;2023-03-26T12:47:09;67586.06;;;11.56;100.00
5988;BME280;3021;51.000;6.980;2023-03-26T12:49:37;67576.69;;;11.45;100.00
5988;BME280;3021;51.000;6.980;2023-03-26T12:57:35;67580.88;;;11.51;100.00
5988;BME280;3021;51.000;6.980;2023-03-26T13:03:20;67534.03;;;11.10;100.00
5988;BME280;3021;51.000;6.980;2023-03-26T13:14:07;67518.44;;;10.96;100.00
5988;BME280;3021;51.000;6.980;2023-03-26T13:17:09;67508.03;;;10.86;100.00
5988;BME280;3021;51.000;6.980;2023-03-26T13:25:39;67619.78;;;11.88;100.00
5988;BME280;3021;51.000;6.980;2023-03-26T13:31:22;67708.19;;;12.65;100.00
5988;BME280;3021;51.000;6.980;2023-03-26T13:34:09;67740.63;;;12.93;100.00
5988;BME280;3021;51.000;6.980;2023-03-26T13:37:11;67745.25;;;12.98;100.00
5988;BME280;3021;51.000;6.980;2023-03-26T13:40:10;67745.66;;;12.95;100.00
5988;BME280;3021;51.000;6.980;2023-03-26T13:48:29;67822.88;;;13.67;100.00
5988;BME280;3021;51.000;6.980;2023-03-26T13:51:11;67836.19;;;13.78;100.00
5988;BME280;3021;51.000;6.980;2023-03-26T13:56:25;67891.97;;;14.30;100.00
5988;BME280;3021;51.000;6.980;2023-03-26T13:59:04;67918.47;;;14.51;100.00
5988;BME280;3021;51.000;6.980;2023-03-26T14:01:39;67924.28;;;14.57;100.00
5988;BME280;3021;51.000;6.980;2023-03-26T14:09:30;67911.69;;;14.48;100.00
5988;BME280;3021;51.000;6.980;2023-03-26T14:12:30;67915.72;;;14.51;100.00
5988;BME280;3021;51.000;6.980;2023-03-26T14:15:01;67915.88;;;14.54;100.00
5988;BME280;3021;51.000;6.980;2023-03-26T14:17:38;67904.00;;;14.39;100.00
5988;BME280;3021;51.000;6.980;2023-03-26T14:20:22;67884.88;;;14.22;100.00
5988;BME280;3021;51.000;6.980;2023-03-26T14:42:36;67876.19;;;14.14;100.00
5988;BME280;3021;51.000;6.980;2023-03-26T14:53:59;67807.38;;;13.55;100.00
5988;BME280;3021;51.000;6.980;2023-03-26T15:16:05;67704.72;;;12.61;100.00
5988;BME280;3021;51.000;6.980;2023-03-26T15:40:46;67497.50;;;10.75;100.00
5988;BME280;3021;51.000;6.980;2023-03-26T15:43:16;67451.25;;;10.33;100.00
5988;BME280;3021;51.000;6.980;2023-03-26T15:45:51;67409.22;;;9.98;100.00
5988;BME280;3021;51.000;6.980;2023-03-26T15:48:43;67388.56;;;9.82;100.00
5988;BME280;3021;51.000;6.980;2023-03-26T15:54:16;67394.78;;;9.85;100.00
5988;BME280;3021;51.000;6.980;2023-03-26T16:05:35;67364.03;;;9.56;100.00
5988;BME280;3021;51.000;6.980;2023-03-26T16:18:38;67332.25;;;9.27;100.00
5988;BME280;3021;51.000;6.980;2023-03-26T16:31:23;67291.31;;;8.91;100.00
5988;BME280;3021;51.000;6.980;2023-03-26T16:36:31;67278.59;;;8.79;100.00
5988;BME280;3021;51.000;6.980;2023-03-26T16:41:29;67280.50;;;8.84;100.00
5988;BME280;3021;51.000;6.980;2023-03-26T16:49:49;67294.34;;;8.96;100.00
5988;BME280;3021;51.000;6.980;2023-03-26T16:55:02;67282.66;;;8.83;100.00
5988;BME280;3021;51.000;6.980;2023-03-26T17:00:23;67280.50;;;8.84;100.00
5988;BME280;3021;51.000;6.980;2023-03-26T17:05:35;67275.88;;;8.79;100.00
5988;BME280;3021;51.000;6.980;2023-03-26T17:14:20;67266.47;;;8.69;100.00
5988;BME280;3021;51.000;6.980;2023-03-26T17:19:45;67258.00;;;8.63;100.00
5988;BME280;3021;51.000;6.980;2023-03-26T17:24:56;67260.28;;;8.65;100.00
5988;BME280;3021;51.000;6.980;2023-03-26T17:32:57;67263.75;;;8.69;100.00
5988;BME280;3021;51.000;6.980;2023-03-26T17:35:45;67259.56;;;8.62;100.00
5988;BME280;3021;51.000;6.980;2023-03-26T17:40:53;67249.75;;;8.54;100.00
5988;BME280;3021;51.000;6.980;2023-03-26T17:46:29;67239.38;;;8.44;100.00
5988;BME280;3021;51.000;6.980;2023-03-26T17:49:17;67227.81;;;8.34;100.00
5988;BME280;3021;51.000;6.980;2023-03-26T17:51:54;67226.09;;;8.33;100.00
5988;BME280;3021;51.000;6.980;2023-03-26T17:54:31;67226.09;;;8.33;100.00
5988;BME280;3021;51.000;6.980;2023-03-26T17:57:01;67224.50;;;8.34;100.00
5988;BME280;3021;51.000;6.980;2023-03-26T17:59:28;67223.06;;;8.27;100.00
5988;BME280;3021;51.000;6.980;2023-03-26T18:02:03;67219.75;;;8.27;100.00
5988;BME280;3021;51.000;6.980;2023-03-26T18:04:35;67226.53;;;8.30;100.00
5988;BME280;3021;51.000;6.980;2023-03-26T18:15:31;67216.84;;;8.24;100.00
5988;BME280;3021;51.000;6.980;2023-03-26T18:18:28;67214.56;;;8.22;100.00
5988;BME280;3021;51.000;6.980;2023-03-26T18:20:58;67216.28;;;8.24;100.00
5988;BME280;3021;51.000;6.980;2023-03-26T18:23:44;67209.94;;;8.18;100.00
5988;BME280;3021;51.000;6.980;2023-03-26T18:26:32;67208.06;;;8.14;100.00
5988;BME280;3021;51.000;6.980;2023-03-26T18:29:20;67200.72;;;8.10;100.00
5988;BME280;3021;51.000;6.980;2023-03-26T18:31:51;67202.03;;;8.13;100.00
5988;BME280;3021;51.000;6.980;2023-03-26T18:34:18;67197.25;;;8.07;100.00
5988;BME280;3021;51.000;6.980;2023-03-26T18:36:59;67193.78;;;8.04;100.00
5988;BME280;3021;51.000;6.980;2023-03-26T18:39:39;67184.72;;;7.98;100.00
5988;BME280;3021;51.000;6.980;2023-03-26T18:42:05;67183.44;;;7.94;100.00
5988;BME280;3021;51.000;6.980;2023-03-26T18:44:34;67183.44;;;7.94;100.00
5988;BME280;3021;51.000;6.980;2023-03-26T18:47:04;67175.34;;;7.87;100.00
5988;BME280;3021;51.000;6.980;2023-03-26T18:49:30;67174.19;;;7.86;100.00
5988;BME280;3021;51.000;6.980;2023-03-26T18:51:56;67177.09;;;7.89;100.00
5988;BME280;3021;51.000;6.980;2023-03-26T18:54:25;67164.97;;;7.78;100.00
5988;BME280;3021;51.000;6.980;2023-03-26T18:56:53;67171.31;;;7.84;100.00
5988;BME280;3021;51.000;6.980;2023-03-26T18:59:30;67166.28;;;7.82;100.00
5988;BME280;3021;51.000;6.980;2023-03-26T19:02:01;67169.44;;;7.79;100.00
5988;BME280;3021;51.000;6.980;2023-03-26T19:04:29;67170.75;;;7.83;100.00
5988;BME280;3021;51.000;6.980;2023-03-26T19:06:58;67168.44;;;7.81;100.00
5988;BME280;3021;51.000;6.980;2023-03-26T19:09:24;67165.97;;;7.76;100.00
5988;BME280;3021;51.000;6.980;2023-03-26T19:11:55;67166.53;;;7.77;100.00
5988;BME280;3021;51.000;6.980;2023-03-26T19:14:22;67161.94;;;7.73;100.00
5988;BME280;3021;51.000;6.980;2023-03-26T19:16:53;67158.63;;;7.72;100.00
5988;BME280;3021;51.000;6.980;2023-03-26T19:19:22;67158.06;;;7.72;100.00
5988;BME280;3021;51.000;6.980;2023-03-26T19:21:50;67154.16;;;7.71;100.00
5988;BME280;3021;51.000;6.980;2023-03-26T19:24:17;67167.25;;;7.80;100.00
5988;BME280;3021;51.000;6.980;2023-03-26T19:26:43;67161.50;;;7.75;100.00
5988;BME280;3021;51.000;6.980;2023-03-26T19:29:14;67160.94;;;7.74;100.00
5988;BME280;3021;51.000;6.980;2023-03-26T19:31:41;67156.16;;;7.68;100.00
5988;BME280;3021;51.000;6.980;2023-03-26T19:39:41;67163.25;;;7.76;100.00
5988;BME280;3021;51.000;6.980;2023-03-26T19:42:17;67165.53;;;7.78;100.00
5988;BME280;3021;51.000;6.980;2023-03-26T19:44:44;67185.72;;;7.96;100.00
5988;BME280;3021;51.000;6.980;2023-03-26T19:47:17;67190.91;;;8.01;100.00
5988;BME280;3021;51.000;6.980;2023-03-26T19:52:36;67196.69;;;8.06;100.00
5988;BME280;3021;51.000;6.980;2023-03-26T19:57:32;67200.88;;;8.12;100.00
5988;BME280;3021;51.000;6.980;2023-03-26T20:00:00;67201.28;;;8.10;100.00
5988;BME280;3021;51.000;6.980;2023-03-26T20:02:26;67201.44;;;8.13;100.00